createdAt,value
2023-09-17T00:04:35.553Z,78.84
2023-09-17T00:09:39.042Z,78.99
2023-09-17T00:14:42.638Z,78.14
2023-09-17T00:19:45.786Z,78.43
2023-09-17T00:24:49.150Z,78.43
2023-09-17T00:29:52.367Z,79.30
2023-09-17T00:34:55.671Z,79.02
2023-09-17T00:39:59.085Z,80.34
2023-09-17T00:45:04.034Z,80.00
2023-09-17T00:50:10.166Z,80.39
2023-09-17T00:55:13.452Z,80.33
2023-09-17T01:00:22.407Z,81.53
2023-09-17T01:05:38.358Z,82.52
2023-09-17T01:10:42.302Z,82.78
2023-09-17T01:15:45.832Z,83.03
2023-09-17T01:21:14.729Z,83.43
2023-09-17T01:26:26.467Z,83.29
2023-09-17T01:31:30.610Z,83.67
2023-09-17T01:36:37.356Z,83.88
2023-09-17T01:41:42.143Z,84.11
2023-09-17T01:46:47.148Z,84.53
2023-09-17T01:51:51.184Z,84.66
2023-09-17T01:56:54.395Z,84.81
2023-09-17T02:01:58.125Z,84.90
2023-09-17T02:07:01.424Z,85.24
2023-09-17T02:12:05.246Z,85.64
2023-09-17T02:17:12.540Z,85.63
2023-09-17T02:22:17.001Z,85.98
2023-09-17T02:27:20.800Z,86.28
2023-09-17T02:32:24.119Z,86.08
2023-09-17T02:37:28.048Z,85.65
2023-09-17T02:42:31.763Z,85.51
2023-09-17T02:47:35.317Z,85.52
2023-09-17T02:52:39.767Z,85.94
2023-09-17T02:57:43.122Z,86.53
2023-09-17T03:02:56.186Z,87.71
2023-09-17T03:08:00.346Z,88.15
2023-09-17T03:13:03.601Z,88.65
2023-09-17T03:18:06.874Z,88.87
2023-09-17T03:23:10.120Z,89.28
2023-09-17T03:28:13.426Z,89.65
2023-09-17T03:33:16.703Z,89.48
2023-09-17T03:38:20.459Z,89.75
2023-09-17T03:43:24.508Z,89.81
2023-09-17T03:48:27.897Z,89.88
2023-09-17T03:53:31.391Z,90.45
2023-09-17T03:58:34.960Z,90.66
2023-09-17T04:03:39.210Z,90.78
2023-09-17T04:08:42.368Z,90.85
2023-09-17T04:13:45.775Z,90.71
2023-09-17T04:18:48.785Z,90.55
2023-09-17T04:23:52.291Z,90.40
2023-09-17T04:28:55.874Z,90.13
2023-09-17T04:33:59.228Z,90.29
2023-09-17T04:39:02.233Z,90.50
2023-09-17T04:44:08.928Z,90.49
2023-09-17T04:49:12.646Z,90.22
2023-09-17T04:54:15.852Z,90.03
2023-09-17T04:59:19.010Z,89.90
2023-09-17T05:04:22.290Z,89.68
2023-09-17T05:09:25.590Z,89.49
2023-09-17T05:14:30.235Z,88.88
2023-09-17T05:19:33.572Z,88.23
2023-09-17T05:24:36.852Z,86.22
2023-09-17T05:29:41.221Z,76.83
2023-09-17T05:34:45.767Z,69.21
2023-09-17T05:39:49.028Z,63.15
2023-09-17T05:44:52.437Z,57.39
2023-09-17T05:49:57.279Z,55.40
2023-09-17T05:55:02.442Z,50.41
2023-09-17T06:00:08.945Z,47.79
2023-09-17T06:05:12.352Z,45.52
2023-09-17T06:10:16.211Z,45.08
2023-09-17T06:15:19.576Z,43.22
2023-09-17T06:20:23.194Z,42.06
2023-09-17T06:25:26.545Z,40.94
2023-09-17T06:30:29.909Z,38.06
2023-09-17T06:35:33.328Z,38.17
2023-09-17T06:40:36.604Z,36.24
2023-09-17T06:45:40.458Z,33.99
2023-09-17T06:50:43.978Z,34.92
2023-09-17T06:55:47.407Z,32.88
2023-09-17T07:00:50.713Z,32.69
2023-09-17T07:05:54.309Z,29.52
2023-09-17T07:10:58.019Z,28.93
2023-09-17T07:16:02.373Z,28.12
2023-09-17T07:21:06.501Z,26.46
2023-09-17T07:26:10.554Z,28.01
2023-09-17T07:31:16.562Z,26.32
2023-09-17T07:36:20.045Z,25.85
2023-09-17T07:41:24.570Z,25.83
2023-09-17T07:46:28.579Z,24.89
2023-09-17T07:51:32.196Z,23.42
2023-09-17T07:56:36.143Z,22.96
2023-09-17T08:01:39.678Z,22.91
2023-09-17T08:06:43.510Z,23.47
2023-09-17T08:11:47.329Z,23.65
2023-09-17T08:16:51.559Z,23.95
2023-09-17T08:21:55.027Z,24.40
2023-09-17T08:26:58.653Z,22.78
2023-09-17T08:32:03.070Z,23.00
2023-09-17T08:37:08.097Z,22.82
2023-09-17T08:42:12.159Z,22.12
2023-09-17T08:47:16.095Z,22.12
2023-09-17T08:52:20.725Z,20.97
2023-09-17T08:57:25.509Z,20.73
2023-09-17T09:02:33.880Z,22.08
2023-09-17T09:07:38.436Z,23.11
2023-09-17T09:12:43.606Z,23.52
2023-09-17T09:17:47.037Z,24.66
2023-09-17T09:22:50.357Z,24.01
2023-09-17T09:27:53.735Z,24.77
2023-09-17T09:32:58.088Z,24.81
2023-09-17T09:38:03.317Z,25.10
2023-09-17T09:43:06.634Z,26.17
2023-09-17T09:48:15.310Z,24.93
2023-09-17T09:53:18.355Z,26.57
2023-09-17T09:58:22.200Z,26.76
2023-09-17T10:03:25.902Z,26.70
2023-09-17T10:08:29.234Z,29.42
2023-09-17T10:13:36.199Z,32.14
2023-09-17T10:18:43.701Z,34.82
2023-09-17T10:23:47.269Z,37.47
2023-09-17T10:28:52.770Z,40.50
2023-09-17T10:34:00.329Z,40.51
2023-09-17T10:39:04.467Z,42.32
2023-09-17T10:44:09.336Z,43.91
2023-09-17T10:49:13.744Z,43.08
2023-09-17T10:54:17.262Z,44.47
2023-09-17T10:59:21.828Z,45.10
2023-09-17T11:04:27.208Z,45.91
2023-09-17T11:09:30.569Z,46.08
2023-09-17T11:14:33.832Z,45.70
2023-09-17T11:19:37.123Z,46.51
2023-09-17T11:24:41.737Z,45.80
2023-09-17T11:29:46.977Z,46.10
2023-09-17T11:34:50.369Z,44.07
2023-09-17T11:39:54.325Z,46.39
2023-09-17T11:44:58.315Z,44.59
2023-09-17T11:50:01.994Z,44.89
2023-09-17T11:55:09.585Z,45.06
2023-09-17T12:00:28.068Z,45.50
2023-09-17T12:05:31.455Z,44.90
2023-09-17T12:10:53.684Z,45.69
2023-09-17T12:15:58.256Z,46.11
2023-09-17T12:21:08.692Z,46.41
2023-09-17T12:26:12.248Z,46.87
2023-09-17T12:31:15.891Z,46.00
2023-09-17T12:36:19.071Z,46.00
2023-09-17T12:41:31.958Z,46.41
2023-09-17T12:46:43.523Z,46.75
2023-09-17T12:51:46.828Z,45.83
2023-09-17T12:56:52.298Z,45.29
2023-09-17T13:01:57.423Z,46.11
2023-09-17T13:07:01.773Z,45.56
2023-09-17T13:12:06.142Z,45.25
2023-09-17T13:17:09.676Z,44.48
2023-09-17T13:22:15.083Z,44.67
2023-09-17T13:27:19.463Z,45.42
2023-09-17T13:32:23.354Z,45.47
2023-09-17T13:37:27.074Z,46.16
2023-09-17T13:42:31.609Z,45.06
2023-09-17T13:47:34.939Z,45.44
2023-09-17T13:52:38.339Z,45.42
2023-09-17T13:57:42.145Z,45.41
2023-09-17T14:02:45.984Z,45.85
2023-09-17T14:07:49.301Z,45.63
2023-09-17T14:12:53.003Z,45.61
2023-09-17T14:17:56.221Z,45.84
2023-09-17T14:22:59.470Z,46.14
2023-09-17T14:28:02.749Z,46.29
2023-09-17T14:33:06.603Z,46.34
2023-09-17T14:38:09.898Z,46.51
2023-09-17T14:43:13.693Z,46.42
2023-09-17T14:48:17.234Z,47.57
2023-09-17T14:53:20.662Z,49.11
2023-09-17T14:58:24.130Z,49.52
2023-09-17T15:03:30.410Z,50.67
2023-09-17T15:08:34.434Z,51.49
2023-09-17T15:13:37.663Z,51.59
2023-09-17T15:18:41.467Z,51.76
2023-09-17T15:23:44.881Z,52.45
2023-09-17T15:28:50.632Z,52.90
2023-09-17T15:33:55.051Z,53.56
2023-09-17T15:38:58.603Z,54.62
2023-09-17T15:44:02.165Z,55.64
2023-09-17T15:49:06.616Z,56.83
2023-09-17T15:54:10.597Z,58.08
2023-09-17T15:59:14.566Z,58.30
2023-09-17T16:04:18.220Z,58.86
2023-09-17T16:09:22.044Z,59.34
2023-09-17T16:14:25.809Z,60.10
2023-09-17T16:19:29.897Z,60.92
2023-09-17T16:24:33.313Z,62.24
2023-09-17T16:29:37.444Z,62.44
2023-09-17T16:34:40.973Z,62.28
2023-09-17T16:39:44.264Z,63.56
2023-09-17T16:44:47.787Z,64.04
2023-09-17T16:49:51.068Z,64.99
2023-09-17T16:54:54.819Z,66.28
2023-09-17T16:59:58.017Z,66.83
2023-09-17T17:05:01.963Z,67.50
2023-09-17T17:10:07.360Z,68.36
2023-09-17T17:15:11.139Z,69.20
2023-09-17T17:20:14.706Z,70.86
2023-09-17T17:25:19.198Z,73.22
2023-09-17T17:30:23.372Z,75.46
2023-09-17T17:35:27.366Z,75.20
2023-09-17T17:40:31.263Z,74.50
2023-09-17T17:45:39.007Z,72.66
2023-09-17T17:50:43.630Z,73.25
2023-09-17T17:55:50.131Z,73.50
2023-09-17T18:00:54.682Z,73.60
2023-09-17T18:06:00.251Z,73.97
2023-09-17T18:11:06.531Z,75.26
2023-09-17T18:16:10.770Z,74.71
2023-09-17T18:21:15.067Z,74.86
2023-09-17T18:26:22.007Z,75.74
2023-09-17T18:31:26.537Z,75.84
2023-09-17T18:36:30.602Z,76.56
2023-09-17T18:41:34.413Z,77.53
2023-09-17T18:46:38.087Z,78.09
2023-09-17T18:51:41.580Z,77.33
2023-09-17T18:56:45.557Z,77.05
2023-09-17T19:01:49.375Z,76.59
2023-09-17T19:06:53.820Z,75.96
2023-09-17T19:11:58.403Z,75.78
2023-09-17T19:17:06.396Z,75.96
2023-09-17T19:22:10.988Z,75.90
2023-09-17T19:27:16.257Z,75.93
2023-09-17T19:32:21.474Z,76.40
2023-09-17T19:37:26.060Z,76.83
2023-09-17T19:42:30.411Z,77.02
2023-09-17T19:47:37.478Z,76.72
2023-09-17T19:52:41.109Z,78.06
2023-09-17T19:57:44.413Z,77.99
2023-09-17T20:02:47.979Z,78.41
2023-09-17T20:07:51.581Z,78.22
2023-09-17T20:12:55.059Z,78.26
2023-09-17T20:17:59.525Z,78.40
2023-09-17T20:23:03.132Z,78.31
2023-09-17T20:28:10.728Z,78.26
2023-09-17T20:33:13.836Z,78.46
2023-09-17T20:38:17.205Z,78.68
2023-09-17T20:43:20.927Z,78.87
2023-09-17T20:48:26.034Z,79.14
2023-09-17T20:53:30.000Z,79.33
2023-09-17T20:58:34.794Z,79.49
2023-09-17T21:03:39.034Z,79.66
2023-09-17T21:08:43.156Z,79.89
2023-09-17T21:13:46.680Z,80.22
2023-09-17T21:18:51.021Z,80.09
2023-09-17T21:23:56.988Z,80.06
2023-09-17T21:29:00.962Z,80.17
2023-09-17T21:34:04.927Z,80.49
2023-09-17T21:39:08.742Z,80.46
2023-09-17T21:44:13.042Z,80.43
2023-09-17T21:49:17.827Z,80.68
2023-09-17T21:54:21.132Z,81.02
2023-09-17T21:59:24.562Z,81.41
2023-09-17T22:04:30.030Z,81.63
2023-09-17T22:09:34.240Z,81.62
2023-09-17T22:14:38.587Z,81.29
2023-09-17T22:19:42.629Z,81.47
2023-09-17T22:24:45.819Z,81.87
2023-09-17T22:29:50.352Z,82.59
2023-09-17T22:34:56.477Z,83.19
2023-09-17T22:40:02.195Z,83.62
2023-09-17T22:45:06.478Z,83.06
2023-09-17T22:50:10.295Z,83.01
2023-09-17T22:55:13.658Z,82.97
2023-09-17T23:00:17.608Z,82.34
2023-09-17T23:05:20.957Z,84.29
2023-09-17T23:10:25.280Z,85.09
2023-09-17T23:15:29.260Z,85.37
2023-09-17T23:20:33.312Z,86.58
2023-09-17T23:25:36.597Z,86.56
2023-09-17T23:30:43.834Z,88.62
2023-09-17T23:35:49.044Z,89.52
2023-09-17T23:40:52.311Z,89.71
2023-09-17T23:45:55.796Z,89.65
2023-09-17T23:50:59.189Z,89.66
2023-09-17T23:56:03.472Z,89.22
